Main page
METAR-TAF:

METAR-TAF

Airports :

Tunis, Tunisia

Tunis–Carthage International Airport

latitude: 36-50N, longitude: 010-14E, elevation: 3 m

Current weather observation

The report was made 39 minutes ago, at 23:30 UTC
Wind 7 kt from the West/Northwest
Temperature 13°C
Humidity 88%
Pressure 1019 hPa
Visibility 10 km or more
Scattered clouds at a height of 2300 ft

METAR: DTTA 262330Z 29007KT 9999 SCT023 13/11 Q1019 NOSIG

Time: 01:09 (00:09 UTC)

Forecast

The report was made 7 hours and 0 minutes ago, at 17:09 UTC
Forecast valid from 26 at 18 UTC to 27 at 18 UTC
Wind 6 kt from the Northwest
Visibility 10 km or more
Scattered clouds at a height of 2300 ft

TAF: DTTA 261709Z 2618/2718 32006KT 9999 SCT023

Weather observations and forecasts of more than 4000 airports (METAR and TAF reports).

The available stations are represented by yellow and red dots on the map.

Hover mouse over dot to see the name of the station.

Then click to see weather observations and forecasts.

To change the map : click on the green buttons with a black cross to zoom in, on the green button with a dash to zoom out, or on the green arrows for adjacent maps.


METAR-TAF: